Time;durP1;ratioP1;P1;durP2;ratioP2;P2;SDS_P1;SDS_P2;PMS_P1;PMS_P2;Temp;Humidity;BMP_temperature;BMP_pressure;BME280_temperature;BME280_humidity;BME280_pressure;Samples;Min_cycle;Max_cycle;Signal;HPM_P1;HPM_P2
2022/07/04 00:00:33;;;;;;;14.23;7.53;;;18.20;99.90;;;18.68;76.30;101888.16;5114615;28;20469;-62
2022/07/04 00:03:01;;;;;;;10.00;6.18;;;18.20;99.90;;;18.67;76.13;101894.44;5114606;28;20043;-62
2022/07/04 00:05:29;;;;;;;5.25;4.70;;;18.20;99.90;;;18.58;76.97;101896.44;5114853;28;20042;-62
2022/07/04 00:07:58;;;;;;;5.95;4.63;;;18.10;99.90;;;18.48;77.17;101895.75;5114423;28;20382;-62
2022/07/04 00:10:26;;;;;;;8.90;4.50;;;18.00;99.90;;;18.28;77.17;101887.19;5114448;28;20040;-62
2022/07/04 00:12:56;;;;;;;6.47;5.07;;;17.90;99.90;;;18.18;77.42;101885.59;5096491;28;20420;-62
2022/07/04 00:15:25;;;;;;;4.65;4.30;;;17.80;99.90;;;18.24;77.58;101890.81;5114649;28;20059;-62
2022/07/04 00:17:53;;;;;;;6.80;5.22;;;17.70;99.90;;;18.20;78.23;101883.75;5114161;28;20469;-62
2022/07/04 00:20:22;;;;;;;5.10;4.60;;;17.70;99.90;;;18.24;78.40;101879.22;5113537;28;20078;-62
2022/07/04 00:22:50;;;;;;;6.70;4.57;;;17.70;99.90;;;18.24;78.61;101868.50;5114289;28;20134;-62
2022/07/04 00:25:19;;;;;;;7.35;4.60;;;17.80;99.90;;;18.38;78.90;101877.16;5114206;28;20047;-62
2022/07/04 00:27:47;;;;;;;5.32;4.18;;;17.80;99.90;;;18.35;78.76;101880.78;5114055;28;20044;-62
2022/07/04 00:30:17;;;;;;;4.80;4.35;;;17.90;99.90;;;18.29;78.18;101875.53;5114331;28;20450;-62
2022/07/04 00:32:45;;;;;;;5.55;4.63;;;17.80;99.90;;;18.24;78.09;101873.88;5114168;28;20032;-62
2022/07/04 00:35:13;;;;;;;9.00;5.32;;;17.80;99.90;;;18.12;77.70;101874.97;5114358;28;20071;-62
2022/07/04 00:37:42;;;;;;;5.97;5.38;;;17.80;99.90;;;18.11;77.68;101875.91;5114621;28;20050;-62
2022/07/04 00:40:13;;;;;;;8.00;5.22;;;17.70;99.90;;;18.09;77.76;101861.66;5114079;28;20534;-62
2022/07/04 00:42:41;;;;;;;8.00;5.90;;;17.70;99.90;;;18.01;78.18;101853.78;5096000;28;20070;-62
2022/07/04 00:45:11;;;;;;;9.60;5.70;;;17.70;99.90;;;18.21;78.19;101869.47;5113878;28;20040;-62
2022/07/04 00:47:40;;;;;;;7.18;5.35;;;17.80;99.90;;;17.81;78.11;101796.16;5113782;28;20090;-62
2022/07/04 00:50:09;;;;;;;6.70;4.90;;;17.80;99.90;;;18.31;78.09;101872.84;5114106;28;20047;-62
2022/07/04 00:52:38;;;;;;;5.18;3.95;;;17.90;99.90;;;18.21;77.77;101868.59;5113734;28;20285;-63
2022/07/04 00:55:08;;;;;;;4.30;4.00;;;17.80;99.90;;;18.12;77.17;101858.06;5113978;28;20051;-62
2022/07/04 00:57:36;;;;;;;5.55;5.05;;;17.70;99.90;;;18.13;77.85;101859.81;5114270;28;20052;-62
2022/07/04 01:00:07;;;;;;;5.32;4.85;;;17.70;99.90;;;18.13;78.06;101867.84;5113662;28;20043;-62
2022/07/04 01:02:35;;;;;;;4.95;4.55;;;17.70;99.90;;;18.11;78.65;101856.28;5113729;28;20040;-62
2022/07/04 01:05:06;;;;;;;8.20;5.45;;;17.60;99.90;;;18.21;78.53;101857.88;5113936;28;20063;-62
2022/07/04 01:07:36;;;;;;;7.45;5.10;;;17.70;99.90;;;18.23;78.69;101856.94;5113582;28;20435;-62
2022/07/04 01:10:05;;;;;;;6.53;4.55;;;17.80;99.90;;;18.31;78.77;101856.78;5113583;28;20035;-63
2022/07/04 01:12:33;;;;;;;5.38;4.88;;;17.80;99.90;;;18.32;78.68;101862.09;5113171;28;20070;-62
2022/07/04 01:15:02;;;;;;;4.82;4.43;;;17.80;99.90;;;18.26;78.86;101856.84;5113729;28;20043;-62
2022/07/04 01:17:30;;;;;;;6.20;4.90;;;17.80;99.90;;;18.19;78.87;101844.50;5113444;28;20117;-62
2022/07/04 01:19:59;;;;;;;9.68;5.47;;;17.80;99.90;;;18.09;78.98;101847.38;5113303;28;20047;-62
2022/07/04 01:22:28;;;;;;;6.55;4.90;;;17.70;99.90;;;17.99;79.00;101838.66;5113400;28;20067;-62
2022/07/04 01:24:57;;;;;;;9.63;5.43;;;17.60;99.90;;;18.01;79.12;101834.16;5113188;28;20134;-62
2022/07/04 01:27:25;;;;;;;5.90;4.40;;;17.60;99.90;;;17.69;79.28;101780.38;5113142;28;20043;-62
2022/07/04 01:29:53;;;;;;;4.70;4.30;;;17.60;99.90;;;18.11;79.54;101838.41;5113791;28;20051;-62
2022/07/04 01:32:22;;;;;;;6.20;4.90;;;17.60;99.90;;;18.03;79.53;101824.28;5117621;28;20043;-62
2022/07/04 01:34:50;;;;;;;6.03;5.15;;;17.70;99.90;;;18.22;79.73;101849.78;5117563;28;20043;-62
2022/07/04 01:37:19;;;;;;;6.63;5.00;;;17.70;99.90;;;18.23;79.91;101848.91;5118170;28;20048;-62
2022/07/04 01:39:49;;;;;;;5.60;3.92;;;17.80;99.90;;;18.20;79.96;101854.28;5117526;28;20070;-62
2022/07/04 01:42:17;;;;;;;5.07;4.10;;;17.70;99.90;;;18.18;79.63;101847.19;5117607;28;20552;-62
2022/07/04 01:44:48;;;;;;;5.07;3.58;;;17.70;99.90;;;18.20;79.51;101851.63;5117747;28;20044;-62
2022/07/04 01:47:17;;;;;;;4.70;3.97;;;17.70;99.90;;;18.22;79.27;101839.09;5117593;28;20047;-62
2022/07/04 01:49:45;;;;;;;7.70;4.40;;;17.80;99.90;;;18.23;79.60;101848.91;5117271;28;20035;-62
2022/07/04 01:52:15;;;;;;;6.57;4.05;;;17.80;99.90;;;18.19;79.77;101836.47;5117094;28;20512;-62
2022/07/04 01:54:43;;;;;;;5.05;4.32;;;17.70;99.90;;;17.99;80.08;101811.88;5117216;28;20040;-62
2022/07/04 01:57:14;;;;;;;7.75;4.47;;;17.70;99.90;;;18.17;80.45;101842.78;5117120;28;20067;-62
2022/07/04 02:02:28;;;;;;;8.18;4.65;;;17.70;99.90;;;18.24;80.64;101831.91;5117280;28;20096;-62
2022/07/04 02:04:56;;;;;;;10.15;5.10;;;17.80;99.90;;;18.29;80.47;101837.16;5117169;28;20177;-62
2022/07/04 02:07:26;;;;;;;9.47;5.00;;;17.80;99.90;;;18.37;80.11;101836.06;5117150;28;20078;-62
2022/07/04 02:09:55;;;;;;;8.07;4.68;;;17.90;99.90;;;18.43;79.89;101837.78;5116857;28;20516;-62
2022/07/04 02:15:12;;;;;;;8.90;4.97;;;18.00;99.90;;;18.56;79.98;101844.66;5117144;28;20123;-62
2022/07/04 02:17:41;;;;;;;12.93;5.50;;;18.10;99.90;;;18.62;79.92;101841.84;5117259;28;20370;-62
2022/07/04 02:20:11;;;;;;;13.43;5.07;;;18.10;99.90;;;18.64;79.82;101838.19;5116900;28;20127;-62
2022/07/04 02:22:39;;;;;;;10.02;5.05;;;18.20;99.90;;;18.72;79.69;101846.97;5116865;28;20074;-62
2022/07/04 02:25:12;;;;;;;14.00;5.90;;;18.20;99.90;;;18.78;79.60;101841.47;5116820;28;20074;-62
2022/07/04 02:27:41;;;;;;;14.32;5.50;;;18.30;99.90;;;18.81;79.48;101846.75;5116489;28;20039;-62
2022/07/04 02:30:12;;;;;;;13.40;5.20;;;18.30;99.90;;;18.82;79.40;101845.84;5116838;28;20055;-62
2022/07/04 02:32:41;;;;;;;11.18;4.80;;;18.40;99.90;;;18.76;79.25;101829.91;5116503;28;20071;-62
2022/07/04 02:35:10;;;;;;;13.95;5.38;;;18.40;99.90;;;18.90;79.18;101845.66;5116452;28;20564;-62
2022/07/04 02:37:39;;;;;;;8.60;4.97;;;18.50;99.90;;;18.90;79.26;101841.19;5116473;28;20042;-62
2022/07/04 02:40:10;;;;;;;10.38;4.63;;;18.50;99.90;;;18.90;79.21;101835.84;5116251;28;20043;-62
2022/07/04 02:42:38;;;;;;;10.15;4.95;;;18.40;99.90;;;18.93;79.10;101840.22;5115209;28;20438;-62
2022/07/04 02:45:10;;;;;;;13.07;4.75;;;18.40;99.90;;;18.84;79.22;101827.94;5116501;28;20051;-62
2022/07/04 02:47:38;;;;;;;6.03;4.57;;;18.40;99.90;;;18.32;78.98;101762.97;5116082;28;20075;-62
2022/07/04 02:50:08;;;;;;;7.68;4.75;;;18.30;99.90;;;18.83;79.48;101838.69;5116121;28;20047;-62
2022/07/04 02:52:36;;;;;;;7.23;4.60;;;18.30;99.90;;;18.69;80.14;101825.59;5116354;28;20142;-62
2022/07/04 02:55:05;;;;;;;4.68;4.20;;;18.30;99.90;;;18.63;80.15;101844.50;5116414;28;20027;-62
2022/07/04 02:57:37;;;;;;;10.18;5.28;;;18.20;99.90;;;18.65;79.92;101837.31;5116497;28;20044;-62
2022/07/04 03:00:09;;;;;;;8.10;5.00;;;18.10;99.90;;;18.58;80.01;101842.84;5116033;28;20044;-62
2022/07/04 03:02:37;;;;;;;7.03;4.60;;;18.10;99.90;;;18.37;80.20;101844.13;5115924;28;20393;-62
2022/07/04 03:05:07;;;;;;;8.43;5.25;;;17.90;99.90;;;18.33;80.68;101841.56;5115761;28;20442;-62
2022/07/04 03:07:35;;;;;;;12.70;5.37;;;17.90;99.90;;;18.32;80.96;101818.34;5116020;28;20438;-62
2022/07/04 03:10:04;;;;;;;12.63;5.40;;;18.00;99.90;;;18.46;80.58;101827.91;5116067;28;20464;-62
2022/07/04 03:12:33;;;;;;;8.90;5.45;;;18.00;99.90;;;18.58;80.67;101842.84;5115964;28;20048;-62
2022/07/04 03:15:01;;;;;;;13.98;5.50;;;18.10;99.90;;;18.64;80.53;101848.91;5115669;28;20043;-62
2022/07/04 03:17:34;;;;;;;12.77;5.72;;;18.10;99.90;;;18.67;80.44;101843.50;5115873;28;20075;-62
2022/07/04 03:20:02;;;;;;;13.75;5.65;;;18.10;99.90;;;18.69;80.19;101849.72;5115808;28;20043;-62
2022/07/04 03:22:31;;;;;;;16.05;5.32;;;18.20;99.90;;;18.70;80.26;101837.19;5115765;28;20154;-62
2022/07/04 03:24:59;;;;;;;7.80;4.65;;;18.20;99.90;;;18.58;80.40;101838.34;5115732;28;20047;-62
2022/07/04 03:27:28;;;;;;;10.02;5.18;;;18.20;99.90;;;18.70;80.68;101838.06;5115306;28;20571;-62
2022/07/04 03:29:56;;;;;;;12.57;5.90;;;18.20;99.90;;;18.71;80.31;101845.22;5115495;28;20052;-62
2022/07/04 03:32:25;;;;;;;19.92;5.80;;;18.20;99.90;;;18.68;80.34;101852.41;5115301;28;20051;-62
2022/07/04 03:34:54;;;;;;;6.22;4.50;;;18.20;99.90;;;18.60;80.18;101854.41;5115192;28;20105;-62
2022/07/04 03:37:23;;;;;;;7.37;4.30;;;18.20;99.90;;;18.51;79.85;101852.78;5115503;28;20048;-62
2022/07/04 03:39:51;;;;;;;10.10;5.43;;;18.10;99.90;;;18.48;80.26;101850.19;5115159;28;20285;-62
2022/07/04 03:42:19;;;;;;;8.25;4.55;;;18.10;99.90;;;18.40;80.46;101833.34;5115291;28;20050;-62
2022/07/04 03:44:48;;;;;;;7.40;4.53;;;18.00;99.90;;;18.52;81.00;101845.63;5115069;28;20048;-62
2022/07/04 03:47:17;;;;;;;7.28;4.50;;;18.10;99.90;;;18.49;81.35;101843.00;5115272;28;20409;-62
2022/07/04 03:49:48;;;;;;;7.57;4.70;;;18.10;99.90;;;18.53;81.55;101856.31;5114864;28;20057;-62
2022/07/04 03:52:18;;;;;;;9.50;5.03;;;18.00;99.90;;;18.49;81.42;101853.72;5114952;28;20072;-62
2022/07/04 03:54:46;;;;;;;9.43;4.30;;;18.00;99.90;;;18.42;81.62;101858.34;5114984;28;20053;-62
2022/07/04 03:57:15;;;;;;;8.73;4.70;;;18.00;99.90;;;18.42;81.75;101865.47;5115398;28;20504;-62
2022/07/04 03:59:44;;;;;;;5.07;3.90;;;18.00;99.90;;;18.26;81.93;101834.53;5114806;28;20043;-62
2022/07/04 04:02:12;;;;;;;9.93;4.97;;;18.00;99.90;;;18.39;82.15;101869.09;5114530;28;20076;-62
2022/07/04 04:07:28;;;;;;;4.90;4.25;;;17.90;99.90;;;18.34;81.92;101873.66;5114627;28;20052;-62
2022/07/04 04:09:56;;;;;;;7.03;4.57;;;17.90;99.90;;;18.25;81.94;101865.81;5115131;28;20085;-63
2022/07/04 04:12:24;;;;;;;4.32;4.03;;;17.80;99.90;;;18.17;82.40;101867.75;5114519;28;20039;-62
2022/07/04 04:14:53;;;;;;;7.20;4.60;;;17.70;99.90;;;18.08;83.03;101873.28;5114441;28;20401;-62
2022/07/04 04:17:21;;;;;;;10.13;5.20;;;17.60;99.90;;;18.01;83.78;101866.28;5114689;28;20075;-62
2022/07/04 04:19:49;;;;;;;6.13;5.20;;;17.60;99.90;;;17.90;83.98;101850.41;5114320;28;20108;-62
2022/07/04 04:22:18;;;;;;;7.63;5.18;;;17.60;99.90;;;18.08;83.94;101877.78;5114271;28;20119;-62
2022/07/04 04:24:47;;;;;;;6.38;4.78;;;17.60;99.90;;;18.08;84.00;101878.63;5114303;28;20047;-62
2022/07/04 04:27:21;;;;;;;9.13;5.40;;;17.60;99.90;;;18.08;83.93;101877.78;5114425;28;20082;-63
2022/07/04 04:29:49;;;;;;;8.35;5.20;;;17.60;99.90;;;18.02;83.95;101886.81;5113978;28;20058;-63
2022/07/04 04:32:18;;;;;;;8.63;5.80;;;17.60;99.90;;;18.06;84.20;101875.09;5114300;28;20135;-63
2022/07/04 04:34:46;;;;;;;11.52;6.60;;;17.60;99.90;;;17.92;84.30;101851.25;5114100;28;20044;-63
2022/07/04 04:37:14;;;;;;;10.77;5.95;;;17.60;99.90;;;18.20;84.54;101873.03;5114087;28;20032;-63
2022/07/04 04:39:49;;;;;;;8.40;6.18;;;17.70;99.90;;;18.24;84.91;101880.13;5114308;28;20047;-63
2022/07/04 04:42:18;;;;;;;10.57;6.57;;;17.80;99.90;;;18.31;84.98;101892.47;5114023;28;20126;-63
2022/07/04 04:44:47;;;;;;;15.23;6.63;;;17.80;99.90;;;18.48;84.81;101898.44;5113849;28;20044;-63
2022/07/04 04:47:15;;;;;;;12.18;6.40;;;18.00;99.90;;;18.64;84.49;101909.72;5113919;28;20495;-63
2022/07/04 04:49:43;;;;;;;16.20;5.97;;;18.20;99.90;;;18.76;84.19;101902.28;5114053;28;20066;-63
2022/07/04 04:52:12;;;;;;;15.93;6.95;;;18.30;99.90;;;18.90;83.72;101904.66;5113928;28;20044;-63
2022/07/04 04:54:40;;;;;;;13.65;6.80;;;18.40;99.90;;;19.03;83.38;101916.00;5113899;28;20040;-63
2022/07/04 04:57:12;;;;;;;15.52;6.97;;;18.50;99.90;;;19.14;83.14;101920.22;5114419;28;20053;-63
2022/07/04 04:59:41;;;;;;;11.40;6.03;;;18.60;99.90;;;19.20;82.60;101925.41;5113781;28;20047;-63
2022/07/04 05:02:10;;;;;;;11.90;6.93;;;18.70;99.90;;;19.26;82.57;101932.47;5113840;28;20047;-63
2022/07/04 05:04:47;;;;;;;15.00;7.50;;;18.80;99.90;;;19.32;82.62;101937.66;5113448;28;20040;-63
2022/07/04 05:07:15;;;;;;;13.85;6.97;;;18.90;99.90;;;19.36;82.55;101932.22;5113604;28;20088;-63
2022/07/04 05:09:44;;;;;;;13.48;6.80;;;18.90;99.90;;;19.41;82.41;101927.66;5095385;28;20492;-63
2022/07/04 05:12:12;;;;;;;13.45;6.93;;;19.00;99.90;;;19.23;82.42;101889.59;5095583;28;20050;-63
2022/07/04 05:14:42;;;;;;;14.75;6.53;;;19.00;99.90;;;19.52;82.40;101927.38;5095428;28;20044;-63
2022/07/04 05:17:11;;;;;;;10.07;5.95;;;19.00;99.90;;;19.64;82.65;101924.41;5113480;28;20040;-63
2022/07/04 05:19:39;;;;;;;11.32;6.03;;;19.10;99.90;;;19.61;82.31;101911.94;5113703;28;20104;-63
2022/07/04 05:22:08;;;;;;;12.65;6.05;;;19.20;99.90;;;19.81;81.99;101927.53;5113546;28;20055;-63
2022/07/04 05:24:39;;;;;;;16.98;6.35;;;19.30;99.90;;;19.91;81.37;101925.50;5113376;28;20043;-63
2022/07/04 05:27:08;;;;;;;13.35;5.97;;;19.40;99.90;;;20.05;81.29;101923.34;5113504;28;20147;-63
2022/07/04 05:29:37;;;;;;;10.98;6.13;;;19.60;99.90;;;20.18;81.01;101925.69;5113220;28;20056;-63
2022/07/04 05:32:08;;;;;;;10.93;6.35;;;19.70;99.90;;;20.23;80.46;101921.06;5113952;28;20374;-63
2022/07/04 05:34:37;;;;;;;12.30;5.95;;;19.80;99.90;;;20.30;79.88;101924.47;5113371;28;20071;-63
2022/07/04 05:37:06;;;;;;;11.25;6.00;;;19.90;99.90;;;20.39;79.56;101929.59;5113241;28;20468;-63
2022/07/04 05:39:34;;;;;;;9.05;5.07;;;19.90;99.90;;;20.41;79.30;101927.75;5113243;28;20047;-63
2022/07/04 05:42:02;;;;;;;10.05;5.22;;;20.00;99.90;;;20.47;79.07;101923.09;5113289;28;20382;-64
2022/07/04 05:44:31;;;;;;;9.10;4.75;;;20.10;99.90;;;20.59;78.72;101925.44;5113105;28;20059;-63
2022/07/04 05:46:59;;;;;;;9.35;5.50;;;20.20;99.90;;;20.60;78.15;101908.38;5113124;28;20072;-63
2022/07/04 05:49:29;;;;;;;9.85;5.13;;;20.30;99.90;;;20.80;77.65;101917.66;5113338;28;20067;-63
2022/07/04 05:51:57;;;;;;;7.37;5.30;;;20.40;99.90;;;20.91;77.12;101918.19;5113580;28;20050;-63
2022/07/04 05:54:25;;;;;;;7.07;4.65;;;20.50;99.90;;;21.03;75.95;101923.25;5113643;28;20518;-64
2022/07/04 05:56:54;;;;;;;6.05;4.05;;;20.60;99.90;;;21.01;75.36;101900.88;5095190;28;20461;-63
2022/07/04 05:59:22;;;;;;;6.60;4.00;;;20.70;99.90;;;21.27;74.21;101925.19;5095318;28;20047;-63
2022/07/04 06:01:50;;;;;;;6.05;4.80;;;20.90;99.90;;;21.25;73.11;101909.06;5113416;28;20046;-64
2022/07/04 06:04:19;;;;;;;5.07;4.20;;;21.00;99.90;;;21.25;72.40;101889.38;5113212;28;20092;-63
2022/07/04 06:06:48;;;;;;;10.75;5.00;;;21.10;99.90;;;21.33;71.99;101917.78;5113133;28;20152;-63
2022/07/04 06:09:17;;;;;;;10.50;5.00;;;21.00;99.90;;;21.45;71.67;101919.19;5112825;28;20082;-64
2022/07/04 06:11:45;;;;;;;5.95;4.38;;;21.00;99.90;;;21.56;71.68;101919.75;5112776;28;20127;-63
2022/07/04 06:14:14;;;;;;;6.63;3.83;;;21.10;99.90;;;21.62;71.56;101918.66;5112757;28;20059;-64
2022/07/04 06:16:42;;;;;;;7.22;4.10;;;21.20;99.90;;;21.47;70.29;101926.31;5114607;28;20039;-63
2022/07/04 06:19:11;;;;;;;6.38;4.10;;;21.20;99.90;;;21.18;67.43;101895.84;5116620;28;20122;-63
2022/07/04 06:21:39;;;;;;;6.15;3.78;;;21.00;99.90;;;21.58;67.28;101924.13;5116793;28;20471;-63
2022/07/04 06:24:09;;;;;;;5.80;3.75;;;21.20;99.90;;;21.47;67.88;101894.00;5098568;28;20067;-64
2022/07/04 06:26:37;;;;;;;4.50;3.70;;;21.30;99.90;;;21.65;67.70;101911.34;5098495;28;20047;-63
2022/07/04 06:29:06;;;;;;;5.85;4.00;;;21.30;99.90;;;21.77;65.87;101901.97;5116530;28;20071;-63
2022/07/04 06:31:34;;;;;;;5.90;3.53;;;21.40;99.90;;;21.89;65.95;101907.84;5117109;28;20070;-63
2022/07/04 06:37:00;;;;;;;4.57;3.92;;;21.60;99.90;;;22.08;63.79;101906.31;5013742;28;20050;-63
2022/07/04 06:39:30;;;;;;;6.78;3.80;;;21.80;99.90;;;22.15;63.71;101904.25;5093015;28;20043;-65
2022/07/04 06:41:58;;;;;;;5.95;3.78;;;21.80;99.90;;;22.34;62.99;101918.81;5116323;28;20455;-64
2022/07/04 06:44:26;;;;;;;4.22;3.35;;;22.00;99.90;;;22.15;61.63;101883.56;5098165;28;20456;-66
2022/07/04 06:46:55;;;;;;;3.83;3.47;;;22.00;99.90;;;22.32;61.44;101926.97;5116042;28;20558;-65
2022/07/04 06:49:23;;;;;;;5.10;3.75;;;22.00;99.90;;;21.75;59.69;101842.78;5115997;28;20564;-64
2022/07/04 06:51:51;;;;;;;7.10;3.70;;;22.00;99.90;;;22.11;59.46;101943.91;5116255;28;20392;-64
2022/07/04 06:54:20;;;;;;;8.65;3.78;;;21.80;99.90;;;22.17;59.40;101938.31;5116073;28;20077;-64
2022/07/04 06:56:51;;;;;;;6.28;3.78;;;21.80;99.90;;;22.06;59.24;101932.44;5116612;28;20122;-64
2022/07/04 06:59:39;;;;;;;;;;;21.70;99.90;;;22.10;59.22;101928.69;5116740;28;20085;-64
2022/07/04 07:02:08;;;;;;;6.93;4.13;;;21.80;99.90;;;22.28;59.39;101930.72;5116341;28;20397;-64
2022/07/04 07:04:37;;;;;;;5.28;3.40;;;21.90;99.90;;;22.15;59.25;101891.66;5115475;28;20547;-64
2022/07/04 07:07:06;;;;;;;6.70;3.50;;;22.00;99.90;;;22.52;59.18;101930.75;5115965;28;20044;-65
2022/07/04 07:09:34;;;;;;;6.70;3.92;;;22.10;99.90;;;22.63;59.00;101929.47;5116119;28;20044;-64
2022/07/04 07:12:05;;;;;;;5.20;3.42;;;22.20;99.90;;;22.74;58.75;101938.06;5115579;28;20058;-64
2022/07/04 07:14:33;;;;;;;4.85;3.65;;;22.40;99.90;;;22.80;58.74;101935.09;5116224;28;20046;-66
2022/07/04 07:17:02;;;;;;;4.57;3.63;;;22.40;99.90;;;22.81;58.23;101934.19;5115469;28;20138;-65
2022/07/04 07:19:31;;;;;;;6.13;3.72;;;22.50;99.90;;;22.61;58.83;101915.16;5097456;28;20397;-64
2022/07/04 07:21:59;;;;;;;8.85;4.20;;;22.50;99.90;;;22.60;58.76;101928.69;5115462;28;20489;-66
2022/07/04 07:24:30;;;;;;;5.70;3.83;;;22.30;99.90;;;22.73;58.92;101935.41;5115433;28;20059;-66
2022/07/04 07:26:58;;;;;;;;;;;22.40;99.90;;;22.79;58.65;101933.34;5116117;28;20068;-64
2022/07/04 07:29:28;;;;;;;4.60;3.85;;;22.50;99.90;;;22.92;58.64;101931.06;5114773;28;20018;-64
2022/07/04 07:31:57;;;;;;;5.53;3.70;;;22.50;99.90;;;22.81;57.45;101906.31;5115496;28;20036;-64
2022/07/04 07:34:25;;;;;;;3.75;3.40;;;22.60;99.90;;;23.15;57.05;101934.63;5115314;28;20039;-65
2022/07/04 07:36:54;;;;;;;6.43;3.72;;;22.80;99.90;;;23.26;56.81;101939.63;5115207;28;20088;-64
2022/07/04 07:39:22;;;;;;;6.30;3.60;;;22.90;99.90;;;23.37;55.71;101933.81;5115383;28;20035;-64
2022/07/04 07:41:51;;;;;;;5.13;3.58;;;23.00;99.90;;;23.48;55.54;101942.38;5115002;28;20105;-64
2022/07/04 07:44:19;;;;;;;8.98;3.65;;;23.20;99.90;;;23.25;55.26;101935.13;5115367;28;20093;-64
2022/07/04 07:46:49;;;;;;;6.10;4.45;;;23.00;99.90;;;23.37;55.71;101940.09;5115244;28;20040;-64
2022/07/04 07:49:20;;;;;;;8.03;4.47;;;23.10;99.90;;;23.54;55.79;101958.34;5114910;28;20499;-64
2022/07/04 07:51:48;;;;;;;5.90;4.38;;;23.20;99.90;;;23.63;55.68;101958.84;5115006;28;20039;-64
2022/07/04 07:54:17;;;;;;;5.63;3.97;;;23.20;99.90;;;23.71;55.59;101964.78;5114688;28;20123;-64
2022/07/04 07:57:06;;;;;;;8.30;4.43;;;23.30;99.90;;;23.77;55.09;101961.84;5114976;28;20101;-64
2022/07/04 07:59:34;;;;;;;5.50;4.10;;;23.40;99.90;;;23.82;54.01;101949.03;5114596;28;20043;-64
2022/07/04 08:02:04;;;;;;;4.25;3.72;;;23.40;99.90;;;23.90;54.02;101956.81;5114804;28;20070;-64
2022/07/04 08:04:35;;;;;;;5.05;3.85;;;23.50;99.90;;;23.78;53.44;101973.53;5114770;28;20040;-64
2022/07/04 08:07:05;;;;;;;5.38;4.20;;;23.40;99.90;;;23.83;53.63;101961.59;5114731;28;20050;-64
2022/07/04 08:09:49;;;;;;;4.88;4.05;;;23.40;99.90;;;23.87;53.13;101973.13;5114641;28;20040;-64
2022/07/04 08:12:17;;;;;;;6.25;3.72;;;23.40;99.90;;;23.41;52.77;101962.44;5114433;28;20078;-64
2022/07/04 08:14:46;;;;;;;7.90;4.25;;;23.00;99.90;;;23.45;52.81;101980.31;5114773;28;20096;-64
2022/07/04 08:17:16;;;;;;;7.00;4.35;;;23.10;99.90;;;23.19;52.35;101968.66;5114652;28;20067;-64
2022/07/04 08:19:44;;;;;;;5.88;3.95;;;22.90;99.90;;;23.21;53.03;101976.72;5113953;28;20055;-64
2022/07/04 08:22:13;;;;;;;6.47;4.07;;;22.80;99.90;;;22.90;53.31;101944.63;5114241;28;20143;-64
2022/07/04 08:24:44;;;;;;;4.78;3.55;;;22.80;99.90;;;22.78;53.64;101961.28;5114745;28;20088;-64
2022/07/04 08:27:13;;;;;;;5.68;4.03;;;22.60;99.90;;;22.71;54.02;101983.13;5114738;28;20039;-64
2022/07/04 08:29:42;;;;;;;5.57;4.03;;;22.40;99.90;;;22.72;55.24;101993.00;5114452;28;20134;-64
2022/07/04 08:32:11;;;;;;;5.68;3.78;;;22.30;99.90;;;22.58;57.58;101988.13;5114280;28;20165;-64
2022/07/04 08:34:42;;;;;;;5.03;3.72;;;22.20;99.90;;;22.40;57.97;101991.41;5114253;28;20036;-64
2022/07/04 08:37:11;;;;;;;4.65;3.97;;;22.10;99.90;;;22.28;55.89;101995.44;5114812;28;20048;-64
2022/07/04 08:39:39;;;;;;;8.02;3.90;;;22.00;99.90;;;21.98;56.43;101996.50;5113579;28;20440;-64
2022/07/04 08:42:20;;;;;;;3.80;3.10;;;21.80;99.90;;;21.77;56.61;101998.97;5114308;28;20454;-64
2022/07/04 08:44:50;;;;;;;5.35;3.83;;;21.50;99.90;;;21.62;56.21;101996.78;5114450;28;20088;-64
2022/07/04 08:47:20;;;;;;;4.38;3.80;;;21.30;99.90;;;21.53;56.53;101973.69;5114282;28;20405;-64
2022/07/04 08:49:56;;;;;;;5.55;3.78;;;21.30;99.90;;;21.35;58.11;101994.00;5114083;28;20122;-64
2022/07/04 08:52:37;;;;;;;4.93;3.83;;;21.10;99.90;;;21.45;58.63;101973.06;5113850;28;20477;-64
2022/07/04 09:00:40;;;;;;;6.63;4.07;;;21.50;99.90;;;22.15;56.67;102007.56;5095745;28;20498;-64
2022/07/04 09:03:10;;;;;;;3.92;3.47;;;21.80;99.90;;;22.19;56.65;102009.22;5113443;28;20044;-64
2022/07/04 09:05:40;;;;;;;6.10;3.45;;;21.90;99.90;;;22.22;56.56;102010.97;5114126;28;20146;-64
2022/07/04 09:08:09;;;;;;;3.92;3.22;;;21.90;99.90;;;22.10;55.49;102014.94;5113884;28;20507;-64
2022/07/04 09:10:38;;;;;;;4.28;3.65;;;21.80;99.90;;;22.30;55.36;102015.13;5113650;28;20047;-64
2022/07/04 09:13:10;;;;;;;5.25;4.38;;;21.90;99.90;;;22.59;55.64;102019.53;5113715;28;20042;-64
2022/07/04 09:15:45;;;;;;;4.60;3.20;;;22.20;99.90;;;22.73;54.00;101992.06;5113708;28;20484;-64
2022/07/04 09:18:25;;;;;;;5.47;3.38;;;22.50;99.90;;;22.82;54.93;102022.28;5113912;28;20047;-64
2022/07/04 09:20:59;;;;;;;6.65;3.55;;;22.50;99.90;;;23.19;53.80;102011.88;5113638;28;20104;-64
2022/07/04 09:23:29;;;;;;;3.47;3.13;;;22.80;99.90;;;23.58;54.11;102024.78;5095272;28;20079;-64
2022/07/04 09:26:14;;;;;;;4.75;3.38;;;23.20;99.90;;;23.69;52.20;102023.41;5113682;28;20050;-64
2022/07/04 09:28:45;;;;;;;5.28;3.95;;;23.30;99.90;;;23.83;51.90;102018.34;5113373;28;20063;-64
2022/07/04 09:31:19;;;;;;;6.05;3.50;;;23.50;99.90;;;23.42;52.40;102013.75;5113514;28;20051;-65
2022/07/04 09:33:51;;;;;;;5.35;3.53;;;23.30;99.90;;;23.35;52.47;102023.00;5095271;28;20143;-64
2022/07/04 09:36:25;;;;;;;3.92;3.20;;;23.00;99.90;;;23.13;52.36;102012.09;5113930;28;20048;-64
2022/07/04 09:39:14;;;;;;;5.07;3.28;;;22.90;99.90;;;22.99;53.86;102009.06;5095177;28;20048;-67
2022/07/04 09:41:57;;;;;;;4.10;3.58;;;22.70;99.90;;;23.00;53.01;102009.94;5113399;28;20481;-65
2022/07/04 09:44:30;;;;;;;4.30;3.50;;;22.70;99.90;;;22.80;52.47;102007.97;5113582;28;20066;-66
2022/07/04 09:46:58;;;;;;;4.35;3.40;;;22.40;99.90;;;22.77;52.76;102013.47;5113261;28;20100;-66
2022/07/04 09:49:27;;;;;;;6.10;4.13;;;22.40;99.90;;;22.84;53.42;102004.22;5113145;28;20542;-67
2022/07/04 09:51:57;;;;;;;7.97;3.88;;;22.40;99.90;;;22.91;54.05;102005.78;5115266;28;20040;-66
2022/07/04 09:54:31;;;;;;;5.07;3.70;;;22.50;99.90;;;22.91;54.19;102008.47;5117502;28;20043;-67
2022/07/04 09:57:02;;;;;;;6.28;4.15;;;22.60;99.90;;;23.11;54.25;101991.53;5117686;28;20368;-66
2022/07/04 09:59:31;;;;;;;6.07;3.75;;;22.80;99.90;;;23.33;52.85;102011.38;5116977;28;20505;-66
2022/07/04 10:02:10;;;;;;;5.45;3.72;;;23.00;99.90;;;23.62;51.16;102003.00;5117376;28;20474;-66
2022/07/04 10:04:47;;;;;;;6.80;3.50;;;23.30;99.90;;;23.83;51.04;102015.63;5117252;28;20113;-66
2022/07/04 10:07:36;;;;;;;6.10;3.60;;;23.50;99.90;;;23.91;50.57;101993.69;5116973;28;20070;-66
2022/07/04 10:10:32;;;;;;;5.18;3.33;;;23.70;99.90;;;24.20;49.60;101998.78;5116923;28;20040;-66
2022/07/04 10:13:04;;;;;;;4.00;3.60;;;23.90;99.90;;;24.15;49.41;102012.53;5117270;28;20447;-66
2022/07/04 10:15:34;;;;;;;6.65;3.28;;;23.90;99.90;;;24.24;50.40;102035.59;5098972;28;20051;-67
2022/07/04 10:18:02;;;;;;;6.55;3.55;;;23.90;99.90;;;24.39;50.44;102007.00;5117392;28;20032;-67
2022/07/04 10:20:31;;;;;;;5.13;3.17;;;24.10;99.90;;;24.21;50.69;101988.88;5116608;28;20039;-67
2022/07/04 10:23:02;;;;;;;4.47;3.35;;;24.00;99.90;;;24.12;50.17;102000.94;5116574;28;20089;-68
2022/07/04 10:25:30;;;;;;;3.70;3.03;;;24.00;99.90;;;23.97;49.54;102024.06;5116902;28;20068;-67
2022/07/04 10:27:59;;;;;;;7.00;3.35;;;23.70;99.90;;;23.77;49.95;102020.44;5116595;28;20126;-68
2022/07/04 10:30:30;;;;;;;7.38;3.10;;;23.50;99.90;;;23.62;50.69;102021.03;5116043;28;20400;-77
2022/07/04 10:33:05;;;;;;;4.70;3.15;;;23.30;99.90;;;23.46;50.76;102011.78;5116600;28;20567;-68
2022/07/04 10:35:53;;;;;;;4.47;3.30;;;23.30;99.90;;;23.16;50.45;102012.00;5116482;28;20105;-67
2022/07/04 10:38:24;;;;;;;7.30;3.33;;;23.00;99.90;;;23.20;49.43;102018.16;5116807;28;20101;-68
2022/07/04 10:40:56;;;;;;;4.50;3.28;;;22.90;99.90;;;23.27;48.27;102011.56;5116683;28;20047;-69